メインページ
METAR-TAF:

METAR-TAF

空港 :

ラルナカ, キプロス

ラルナカ国際空港

緯度: 34-53N, 経度: 033-38E, 海抜: 2m

現時点の気象観測

当レポートは33分前の23:00(UTC)に作成
西の風 8kt
気温 15°C
湿度 41%
気圧 1015 hPa
視程10km以上
1,500メートル以下は雲なし、積乱雲なし

METAR: LCLK 232300Z 26008KT CAVOK 15/02 Q1015 NOSIG

時間: 02:33 (23:33 UTC)

予報

当レポートは6時間3分前の17:30(UTC)に作成
予報は23日の 18時(UTC)から 24日の 18時(UTC)まで有効
北/北西の風 9kt
視程10km以上
高度3000ftの雲はほとんどない
24日の 08時(UTC)から 24日の 11時(UTC)まで徐々に
南/南西の風 13kt
24日の 16時(UTC)から 24日の 18時(UTC)まで徐々に
西の風 7kt

TAF: LCLK 231730Z 2318/2418 33009KT 9999 FEW030 BECMG 2408/2411 20013KT BECMG 2416/2418 28007KT

4,000以上の空港の気象観測と天気予報(METAR報とTAF報)

利用可能な観測所は地図上に黄色い丸と赤い丸で示す。

丸の上にカーソルを重ねると観測所名を参照できる。

次にクリックすると気象観測と天気予報を参照できる。

マップの切り替え:黒色「×」印の緑ボタンをクリックして拡大、「-」印の緑ボタンをクリックして縮小、緑色の三角印をクリックして隣りの地図に切り替え


METAR-TAF: